Time;durP1;ratioP1;P1;durP2;ratioP2;P2;SDS_P1;SDS_P2;PMS_P1;PMS_P2;Temp;Humidity;BMP_temperature;BMP_pressure;BME280_temperature;BME280_humidity;BME280_pressure;Samples;Min_cycle;Max_cycle;Signal;HPM_P1;HPM_P2
2023/05/18 00:02:00;;;;;;;7.25;1.67;;;10.00;99.90;;;;;;5090390;28;20417;-73
2023/05/18 00:04:27;;;;;;;6.85;1.70;;;10.00;99.90;;;;;;5073064;28;20499;-73
2023/05/18 00:06:55;;;;;;;7.90;1.60;;;10.00;99.90;;;;;;5089182;28;20417;-73
2023/05/18 00:09:23;;;;;;;8.87;1.67;;;9.90;99.90;;;;;;5078477;28;20410;-73
2023/05/18 00:11:49;;;;;;;5.60;1.27;;;9.90;99.90;;;;;;5090315;28;20825;-73
2023/05/18 00:14:15;;;;;;;6.60;1.60;;;9.90;99.90;;;;;;5089911;28;20558;-73
2023/05/18 00:16:41;;;;;;;7.93;1.50;;;9.90;99.90;;;;;;5082558;28;20501;-74
2023/05/18 00:19:06;;;;;;;8.00;1.30;;;10.00;99.90;;;;;;5091305;28;20398;-74
2023/05/18 00:21:32;;;;;;;7.28;1.75;;;10.00;99.90;;;;;;5088252;28;20499;-74
2023/05/18 00:23:58;;;;;;;8.70;1.85;;;10.00;99.90;;;;;;5089374;28;20402;-74
2023/05/18 00:26:23;;;;;;;8.97;1.90;;;10.00;99.90;;;;;;5072397;28;20402;-74
2023/05/18 00:28:49;;;;;;;6.18;1.80;;;10.00;99.90;;;;;;5088854;28;20760;-74
2023/05/18 00:31:15;;;;;;;7.87;1.90;;;10.00;99.90;;;;;;5090443;28;20927;-74
2023/05/18 00:33:40;;;;;;;7.07;2.20;;;10.00;99.90;;;;;;5090126;28;20471;-74
2023/05/18 00:36:06;;;;;;;7.63;1.90;;;10.00;99.90;;;;;;5088529;28;20409;-74
2023/05/18 00:38:32;;;;;;;8.60;2.35;;;10.00;99.90;;;;;;5089121;28;20481;-74
2023/05/18 00:40:57;;;;;;;8.15;1.92;;;10.00;99.90;;;;;;5088683;28;20963;-74
2023/05/18 00:43:23;;;;;;;7.90;1.73;;;10.00;99.90;;;;;;5088973;28;20964;-74
2023/05/18 00:45:49;;;;;;;7.85;1.60;;;10.10;99.90;;;;;;5088791;28;20406;-74
2023/05/18 00:48:15;;;;;;;5.57;1.30;;;10.00;99.90;;;;;;5090244;28;20950;-74
2023/05/18 00:50:40;;;;;;;7.97;1.83;;;10.00;99.90;;;;;;5087872;28;20467;-74
2023/05/18 00:53:06;;;;;;;6.93;1.50;;;10.00;99.90;;;;;;5089932;28;20830;-74
2023/05/18 00:55:32;;;;;;;6.60;1.63;;;9.90;99.90;;;;;;5088428;28;20433;-74
2023/05/18 00:58:01;;;;;;;7.37;1.53;;;10.00;99.90;;;;;;5088855;28;20922;-74
2023/05/18 01:00:27;;;;;;;6.78;1.50;;;9.90;99.90;;;;;;5088876;28;20479;-74
2023/05/18 01:02:53;;;;;;;8.18;1.80;;;9.90;99.90;;;;;;5088335;28;20424;-74
2023/05/18 01:05:20;;;;;;;8.50;2.05;;;9.90;99.90;;;;;;5090104;28;20402;-74
2023/05/18 01:07:49;;;;;;;8.82;1.95;;;9.90;99.90;;;;;;5089049;28;20437;-74
2023/05/18 01:10:17;;;;;;;7.18;1.52;;;9.90;99.90;;;;;;5087935;28;20456;-74
2023/05/18 01:13:05;;;;;;;7.07;1.90;;;9.90;99.90;;;;;;5071105;28;20810;-74
2023/05/18 01:15:37;;;;;;;8.43;1.90;;;9.90;99.90;;;;;;5088511;28;20488;-74
2023/05/18 01:18:06;;;;;;;7.00;1.98;;;9.90;99.90;;;;;;5084421;28;20416;-74
2023/05/18 01:20:46;;;;;;;8.32;1.88;;;9.90;99.90;;;;;;5083913;28;20468;-74
2023/05/18 01:23:51;;;;;;;6.70;1.50;;;9.90;99.90;;;;;;5071685;28;20502;-74
2023/05/18 01:26:30;;;;;;;9.57;1.60;;;10.00;99.90;;;;;;5089324;28;20903;-74
2023/05/18 01:29:02;;;;;;;9.45;2.13;;;10.00;99.90;;;;;;5088194;28;20406;-74
2023/05/18 01:31:28;;;;;;;6.75;1.30;;;9.90;99.90;;;;;;5089393;28;20489;-74
2023/05/18 01:33:54;;;;;;;7.07;1.40;;;9.90;99.90;;;;;;5087199;28;21349;-74
2023/05/18 01:36:19;;;;;;;7.40;1.43;;;9.80;99.90;;;;;;5087305;28;20410;-74
2023/05/18 01:38:46;;;;;;;7.93;1.50;;;9.80;99.90;;;;;;5086816;28;20418;-74
2023/05/18 01:41:12;;;;;;;11.30;2.10;;;9.80;99.90;;;;;;5070664;28;20479;-74
2023/05/18 01:44:08;;;;;;;7.13;1.55;;;9.90;99.90;;;;;;5086662;28;20417;-74
2023/05/18 01:46:45;;;;;;;8.88;1.60;;;9.80;99.90;;;;;;5053685;28;20416;-74
2023/05/18 01:49:19;;;;;;;6.22;1.40;;;9.90;99.90;;;;;;5086489;28;20987;-74
2023/05/18 01:51:48;;;;;;;6.80;1.35;;;9.90;99.90;;;;;;5070262;28;20402;-74
2023/05/18 01:54:17;;;;;;;6.93;1.52;;;9.90;99.90;;;;;;5089128;28;20422;-74
2023/05/18 01:56:45;;;;;;;6.27;1.10;;;9.90;99.90;;;;;;5087460;28;20483;-74
2023/05/18 01:59:13;;;;;;;6.32;1.55;;;9.90;99.90;;;;;;5089213;28;20406;-74
2023/05/18 02:01:38;;;;;;;6.03;1.38;;;9.80;99.90;;;;;;5070098;28;20413;-74
2023/05/18 02:04:08;;;;;;;7.97;1.87;;;9.80;99.90;;;;;;5070463;28;20406;-74
2023/05/18 02:06:35;;;;;;;6.50;1.63;;;9.80;99.90;;;;;;5087137;28;20434;-74
2023/05/18 02:09:02;;;;;;;6.95;1.10;;;9.80;99.90;;;;;;5088520;28;20885;-74
2023/05/18 02:11:28;;;;;;;5.63;1.10;;;9.80;99.90;;;;;;5067632;28;20410;-74
2023/05/18 02:13:54;;;;;;;7.63;1.58;;;9.80;99.90;;;;;;5087806;28;20430;-74
2023/05/18 02:16:20;;;;;;;6.47;1.27;;;9.80;99.90;;;;;;5087921;28;20402;-74
2023/05/18 02:18:46;;;;;;;9.02;1.50;;;9.80;99.90;;;;;;5087929;28;20467;-74
2023/05/18 02:21:12;;;;;;;5.18;1.23;;;9.90;99.90;;;;;;5086094;28;20406;-74
2023/05/18 02:23:38;;;;;;;7.38;1.83;;;9.80;99.90;;;;;;5087227;28;20924;-74
2023/05/18 02:26:04;;;;;;;7.18;1.25;;;9.80;99.90;;;;;;5085679;28;20402;-74
2023/05/18 02:28:30;;;;;;;8.55;1.45;;;9.90;99.90;;;;;;5087195;28;20398;-73
2023/05/18 02:31:07;;;;;;;7.07;1.10;;;9.80;99.90;;;;;;5086242;28;20404;-74
2023/05/18 02:33:38;;;;;;;7.07;1.20;;;9.90;99.90;;;;;;5086940;28;20750;-74
2023/05/18 02:36:06;;;;;;;5.95;1.10;;;9.90;99.90;;;;;;5086782;28;20413;-74
2023/05/18 02:38:31;;;;;;;6.45;1.52;;;9.90;99.90;;;;;;5086152;28;20414;-74
2023/05/18 02:40:57;;;;;;;7.03;1.10;;;9.90;99.90;;;;;;5085900;28;20410;-74
2023/05/18 02:43:23;;;;;;;6.90;1.50;;;9.90;99.90;;;;;;5087731;28;20406;-74
2023/05/18 02:45:48;;;;;;;5.05;1.10;;;9.90;99.90;;;;;;5086922;28;20492;-74
2023/05/18 02:48:14;;;;;;;7.47;1.27;;;9.90;99.90;;;;;;5086310;28;20410;-74
2023/05/18 02:50:40;;;;;;;6.13;1.05;;;9.90;99.90;;;;;;5088085;28;20421;-74
2023/05/18 02:53:06;;;;;;;7.43;1.52;;;9.80;99.90;;;;;;5087563;28;20413;-74
2023/05/18 02:55:31;;;;;;;7.53;1.27;;;9.80;99.90;;;;;;5086556;28;20426;-74
2023/05/18 02:57:58;;;;;;;8.33;1.47;;;9.70;99.90;;;;;;5086768;28;20428;-74
2023/05/18 03:00:24;;;;;;;8.80;1.73;;;9.70;99.90;;;;;;5086400;28;20433;-74
2023/05/18 03:02:50;;;;;;;6.70;1.20;;;9.70;99.90;;;;;;5086266;28;20438;-74
2023/05/18 03:05:17;;;;;;;6.25;1.05;;;9.70;99.90;;;;;;5086550;28;20410;-74
2023/05/18 03:07:49;;;;;;;7.25;1.45;;;9.70;99.90;;;;;;5086413;28;20409;-74
2023/05/18 03:10:15;;;;;;;11.30;1.20;;;9.70;99.90;;;;;;5086599;28;20402;-74
2023/05/18 03:12:41;;;;;;;7.53;1.25;;;9.70;99.90;;;;;;5087802;28;20495;-74
2023/05/18 03:15:07;;;;;;;6.95;1.40;;;9.70;99.90;;;;;;5086587;28;20509;-74
2023/05/18 03:17:33;;;;;;;6.53;1.20;;;9.70;99.90;;;;;;5086227;28;20805;-74
2023/05/18 03:19:58;;;;;;;9.77;1.80;;;9.70;99.90;;;;;;5087686;28;20398;-74
2023/05/18 03:22:24;;;;;;;7.63;1.30;;;9.70;99.90;;;;;;5086550;28;20414;-74
2023/05/18 03:24:50;;;;;;;6.43;1.30;;;9.70;99.90;;;;;;5087586;28;20938;-74
2023/05/18 03:27:17;;;;;;;6.43;1.20;;;9.70;99.90;;;;;;5085985;28;20486;-74
2023/05/18 03:29:43;;;;;;;7.50;1.38;;;9.70;99.90;;;;;;5085528;28;20501;-74
2023/05/18 03:32:08;;;;;;;5.97;1.13;;;9.70;99.90;;;;;;5069737;28;20481;-74
2023/05/18 03:34:35;;;;;;;8.38;1.50;;;9.70;99.90;;;;;;5090736;28;20566;-74
2023/05/18 03:37:01;;;;;;;8.60;1.52;;;9.70;99.90;;;;;;5091269;28;21037;-74
2023/05/18 03:39:27;;;;;;;5.90;1.30;;;9.70;99.90;;;;;;5090666;28;20492;-74
2023/05/18 03:41:53;;;;;;;6.63;1.25;;;9.70;99.90;;;;;;5072987;28;20443;-74
2023/05/18 03:44:18;;;;;;;6.70;1.40;;;9.80;99.90;;;;;;5091481;28;20418;-74
2023/05/18 03:46:44;;;;;;;4.65;1.15;;;9.70;99.90;;;;;;5090011;28;20410;-74
2023/05/18 03:49:10;;;;;;;7.30;1.57;;;9.70;99.90;;;;;;5089924;28;20409;-74
2023/05/18 03:51:35;;;;;;;7.10;1.30;;;9.70;99.90;;;;;;5090067;28;20969;-74
2023/05/18 03:54:01;;;;;;;6.15;1.15;;;9.70;99.90;;;;;;5090345;28;20425;-74
2023/05/18 03:56:29;;;;;;;6.17;1.00;;;9.70;99.90;;;;;;5089249;28;20406;-74
2023/05/18 03:58:57;;;;;;;7.05;1.20;;;9.70;99.90;;;;;;5080942;28;20411;-74
2023/05/18 04:01:23;;;;;;;5.35;1.13;;;9.70;99.90;;;;;;5088063;28;20420;-74
2023/05/18 04:03:50;;;;;;;7.05;1.38;;;9.70;99.90;;;;;;5089836;28;20501;-74
2023/05/18 04:06:16;;;;;;;5.88;1.13;;;9.70;99.90;;;;;;5071259;28;20418;-74
2023/05/18 04:08:42;;;;;;;5.47;1.10;;;9.70;99.90;;;;;;5088817;28;20410;-74
2023/05/18 04:11:08;;;;;;;6.50;1.35;;;9.70;99.90;;;;;;5089707;28;20422;-74
2023/05/18 04:13:36;;;;;;;7.60;1.30;;;9.70;99.90;;;;;;5090011;28;20410;-74
2023/05/18 04:16:03;;;;;;;9.27;1.40;;;9.70;99.90;;;;;;5088617;28;20406;-74
2023/05/18 04:18:29;;;;;;;5.93;1.10;;;9.70;99.90;;;;;;5088775;28;20410;-74
2023/05/18 04:20:55;;;;;;;9.40;1.25;;;9.70;99.90;;;;;;5087841;28;21017;-74
2023/05/18 04:23:21;;;;;;;7.15;1.20;;;9.70;99.90;;;;;;5088306;28;20488;-74
2023/05/18 04:25:48;;;;;;;8.60;1.20;;;9.70;99.90;;;;;;5088073;28;20402;-74
2023/05/18 04:28:13;;;;;;;7.80;1.30;;;9.70;99.90;;;;;;5090194;28;20406;-74
2023/05/18 04:30:39;;;;;;;5.53;1.25;;;9.80;99.90;;;;;;5088201;28;20406;-74
2023/05/18 04:33:08;;;;;;;5.80;1.27;;;9.80;99.90;;;;;;5089118;28;20414;-74
2023/05/18 04:35:34;;;;;;;5.13;1.23;;;9.80;99.90;;;;;;5088613;28;20517;-74
2023/05/18 04:37:59;;;;;;;5.67;1.10;;;9.90;99.90;;;;;;5088967;28;20501;-74
2023/05/18 04:40:25;;;;;;;6.13;1.25;;;9.90;99.90;;;;;;5090386;28;20408;-74
2023/05/18 04:42:50;;;;;;;8.43;1.40;;;9.90;99.90;;;;;;5090204;28;20459;-74
2023/05/18 04:45:18;;;;;;;6.50;1.50;;;9.90;99.90;;;;;;5089313;28;20394;-74
2023/05/18 04:47:47;;;;;;;7.97;1.60;;;10.00;99.90;;;;;;5089488;28;20421;-74
2023/05/18 04:50:14;;;;;;;6.60;1.40;;;10.00;99.90;;;;;;5088349;28;20925;-74
2023/05/18 04:52:47;;;;;;;8.10;1.33;;;10.00;99.90;;;;;;5071789;28;20526;-74
2023/05/18 04:55:26;;;;;;;5.10;1.00;;;10.10;99.90;;;;;;5088245;28;20429;-74
2023/05/18 04:57:55;;;;;;;5.78;1.40;;;10.10;99.90;;;;;;5088754;28;20477;-74
2023/05/18 05:00:23;;;;;;;6.70;1.42;;;10.20;99.90;;;;;;5088606;28;20418;-74
2023/05/18 05:02:49;;;;;;;5.72;1.10;;;10.20;99.90;;;;;;5089693;28;20400;-74
2023/05/18 05:05:15;;;;;;;7.35;1.30;;;10.20;99.90;;;;;;5090372;28;20409;-74
2023/05/18 05:07:41;;;;;;;7.25;1.30;;;10.30;99.90;;;;;;5089364;28;20390;-74
2023/05/18 05:10:07;;;;;;;3.73;0.90;;;10.40;99.90;;;;;;5090079;28;20405;-74
2023/05/18 05:12:35;;;;;;;6.43;1.00;;;10.40;99.90;;;;;;5089676;28;20402;-74
2023/05/18 05:15:01;;;;;;;5.28;1.05;;;10.40;99.90;;;;;;5088124;28;20430;-74
2023/05/18 05:17:27;;;;;;;8.77;1.50;;;10.50;99.90;;;;;;5088536;28;20421;-74
2023/05/18 05:19:52;;;;;;;5.57;1.10;;;10.50;99.90;;;;;;5089681;28;20413;-74
2023/05/18 05:22:19;;;;;;;6.67;1.10;;;10.50;99.90;;;;;;5087766;28;20764;-74
2023/05/18 05:24:44;;;;;;;9.00;1.20;;;10.50;99.90;;;;;;5088652;28;20467;-74
2023/05/18 05:27:10;;;;;;;7.07;1.38;;;10.50;99.90;;;;;;5089784;28;20398;-74
2023/05/18 05:29:36;;;;;;;5.90;1.10;;;10.50;99.90;;;;;;5089431;28;20447;-74
2023/05/18 05:32:01;;;;;;;6.07;1.30;;;10.50;99.90;;;;;;5089066;28;20402;-74
2023/05/18 05:34:27;;;;;;;5.25;1.00;;;10.40;99.90;;;;;;5088192;28;20444;-74
2023/05/18 05:36:53;;;;;;;5.30;1.10;;;10.40;99.90;;;;;;5087844;28;20561;-74
2023/05/18 05:39:18;;;;;;;5.35;1.05;;;10.40;99.90;;;;;;5089441;28;20416;-74
2023/05/18 05:41:44;;;;;;;4.27;1.10;;;10.40;99.90;;;;;;5087606;28;20934;-74
2023/05/18 05:44:09;;;;;;;5.70;0.98;;;10.50;99.90;;;;;;5087855;28;20570;-74
2023/05/18 05:46:35;;;;;;;6.37;1.07;;;10.50;99.90;;;;;;5087794;28;20772;-74
2023/05/18 05:49:00;;;;;;;6.45;1.10;;;10.50;99.90;;;;;;5087811;28;20413;-74
2023/05/18 05:51:26;;;;;;;4.83;0.93;;;10.50;99.90;;;;;;5088764;28;20410;-74
2023/05/18 05:53:52;;;;;;;6.82;1.10;;;10.50;99.90;;;;;;5087701;28;21009;-74
2023/05/18 05:56:17;;;;;;;6.77;1.30;;;10.50;99.90;;;;;;5088470;28;20772;-74
2023/05/18 05:58:43;;;;;;;7.75;1.00;;;10.60;99.90;;;;;;5087698;28;20447;-74
2023/05/18 06:01:09;;;;;;;4.50;0.80;;;10.60;99.90;;;;;;5088779;28;20410;-74
2023/05/18 06:03:34;;;;;;;7.15;1.48;;;10.70;99.90;;;;;;5087388;28;20410;-74
2023/05/18 06:06:00;;;;;;;3.97;0.80;;;10.70;99.90;;;;;;5088771;28;20413;-74
2023/05/18 06:08:26;;;;;;;6.00;1.33;;;10.70;99.90;;;;;;5087237;28;20406;-74
2023/05/18 06:10:52;;;;;;;6.80;1.20;;;10.80;99.90;;;;;;5088329;28;20410;-74
2023/05/18 06:13:17;;;;;;;5.88;1.08;;;10.80;99.90;;;;;;5087817;28;20422;-74
2023/05/18 06:15:43;;;;;;;5.10;1.00;;;10.90;99.90;;;;;;5088151;28;20452;-74
2023/05/18 06:18:09;;;;;;;5.50;0.93;;;11.00;99.90;;;;;;5087314;28;20412;-74
2023/05/18 06:20:35;;;;;;;5.77;0.90;;;11.10;99.90;;;;;;5088342;28;20402;-74
2023/05/18 06:23:00;;;;;;;5.53;1.08;;;11.10;99.90;;;;;;5087185;28;20409;-74
2023/05/18 06:25:26;;;;;;;6.20;1.00;;;11.20;99.90;;;;;;5086845;28;20463;-74
2023/05/18 06:27:51;;;;;;;6.50;1.10;;;11.30;99.90;;;;;;5087208;28;20405;-74
2023/05/18 06:30:17;;;;;;;8.67;1.27;;;11.40;99.90;;;;;;5088041;28;20872;-74
2023/05/18 06:32:43;;;;;;;5.97;0.80;;;11.40;99.90;;;;;;5088138;28;20869;-74
2023/05/18 06:35:08;;;;;;;6.57;1.00;;;11.50;99.90;;;;;;5079961;28;20438;-75
2023/05/18 06:37:34;;;;;;;4.35;0.80;;;11.50;99.90;;;;;;5083297;28;20425;-75
2023/05/18 06:40:00;;;;;;;5.57;0.70;;;11.60;99.90;;;;;;5080721;28;20402;-76
2023/05/18 06:42:25;;;;;;;6.90;1.40;;;11.70;99.90;;;;;;5086883;28;20410;-76
2023/05/18 06:44:51;;;;;;;5.60;1.20;;;11.70;99.90;;;;;;5085076;28;20958;-75
2023/05/18 06:47:17;;;;;;;6.60;1.00;;;11.70;99.90;;;;;;5084019;28;20441;-75
2023/05/18 06:49:43;;;;;;;6.90;1.02;;;11.60;99.90;;;;;;5084406;28;20410;-75
2023/05/18 06:52:08;;;;;;;4.37;0.90;;;11.70;99.90;;;;;;5085313;28;20402;-75
2023/05/18 06:54:37;;;;;;;6.18;1.00;;;11.80;99.90;;;;;;5084965;28;20873;-75
2023/05/18 06:57:03;;;;;;;4.22;0.98;;;11.80;99.90;;;;;;5065407;28;20493;-76
2023/05/18 06:59:29;;;;;;;5.35;1.08;;;11.90;99.90;;;;;;5084682;28;20488;-76
2023/05/18 07:01:54;;;;;;;5.67;1.30;;;11.90;99.90;;;;;;5085486;28;20402;-75
2023/05/18 07:04:20;;;;;;;4.90;0.80;;;12.00;99.90;;;;;;5085061;28;20428;-75
2023/05/18 07:06:45;;;;;;;8.37;1.27;;;12.10;99.90;;;;;;5083701;28;20412;-75
2023/05/18 07:09:11;;;;;;;7.60;1.20;;;12.20;99.70;;;;;;5079473;28;20487;-75
2023/05/18 07:11:39;;;;;;;3.70;1.00;;;12.20;99.60;;;;;;5065802;28;20418;-75
2023/05/18 07:14:05;;;;;;;7.00;1.08;;;12.10;99.40;;;;;;5081149;28;20531;-75
2023/05/18 07:16:31;;;;;;;5.95;0.82;;;12.10;99.80;;;;;;5078206;28;20947;-75
2023/05/18 07:18:59;;;;;;;5.63;1.10;;;12.20;99.40;;;;;;5084589;28;20487;-75
2023/05/18 07:21:25;;;;;;;5.03;1.00;;;12.40;99.20;;;;;;5084822;28;20448;-75
2023/05/18 07:23:51;;;;;;;4.87;1.10;;;12.50;99.00;;;;;;5084715;28;20429;-75
2023/05/18 07:26:18;;;;;;;5.60;0.90;;;12.70;99.30;;;;;;5086674;28;20410;-75
2023/05/18 07:28:43;;;;;;;6.00;1.00;;;12.70;98.80;;;;;;5087281;28;20402;-71
2023/05/18 07:31:09;;;;;;;4.53;0.90;;;12.80;99.40;;;;;;5094881;28;20608;-73
2023/05/18 07:33:35;;;;;;;5.38;0.90;;;12.90;98.70;;;;;;5068648;28;20410;-74
2023/05/18 07:36:01;;;;;;;5.75;1.10;;;13.00;98.90;;;;;;5065715;28;20456;-73
2023/05/18 07:38:27;;;;;;;9.23;1.13;;;13.10;98.60;;;;;;5085860;28;20479;-73
2023/05/18 07:40:53;;;;;;;5.13;1.00;;;13.10;98.30;;;;;;5086449;28;20437;-73
2023/05/18 07:43:18;;;;;;;4.97;0.90;;;13.10;98.70;;;;;;5080211;28;20767;-74
2023/05/18 07:45:44;;;;;;;4.97;0.90;;;13.10;98.50;;;;;;5087499;28;20413;-73
2023/05/18 07:48:10;;;;;;;7.23;1.10;;;13.20;98.40;;;;;;5091771;28;20926;-74
2023/05/18 07:50:36;;;;;;;9.60;1.27;;;13.30;98.40;;;;;;5087009;28;20496;-74
2023/05/18 07:53:01;;;;;;;7.20;1.30;;;13.50;97.50;;;;;;5088911;28;20449;-74
2023/05/18 07:55:27;;;;;;;6.38;1.05;;;13.60;97.70;;;;;;5088161;28;20487;-74
2023/05/18 07:57:52;;;;;;;5.87;1.07;;;13.60;97.30;;;;;;5086084;28;20421;-74
2023/05/18 08:00:19;;;;;;;4.63;1.10;;;13.60;97.10;;;;;;5086408;28;20410;-74
2023/05/18 08:02:44;;;;;;;7.18;1.13;;;13.50;97.60;;;;;;5086948;28;20444;-74
2023/05/18 08:05:11;;;;;;;7.37;1.30;;;13.40;97.00;;;;;;5090902;28;20410;-74
2023/05/18 08:07:36;;;;;;;7.17;1.03;;;13.30;97.60;;;;;;5082883;28;20779;-74
2023/05/18 08:10:03;;;;;;;5.57;1.10;;;13.20;97.10;;;;;;5091799;28;20406;-74
2023/05/18 08:12:31;;;;;;;9.68;1.60;;;13.10;96.90;;;;;;5070351;28;20427;-72
2023/05/18 08:14:57;;;;;;;7.37;1.30;;;13.00;97.70;;;;;;5091781;28;20428;-72
2023/05/18 08:17:22;;;;;;;6.70;1.35;;;12.90;97.70;;;;;;5085427;28;20465;-72
2023/05/18 08:19:49;;;;;;;7.03;1.33;;;12.90;97.80;;;;;;5092869;28;20889;-73
2023/05/18 08:22:15;;;;;;;7.20;1.20;;;12.90;97.50;;;;;;5084676;28;20812;-74
2023/05/18 08:24:40;;;;;;;5.38;1.30;;;12.80;97.20;;;;;;5092365;28;20448;-73
2023/05/18 08:27:08;;;;;;;4.77;1.00;;;12.80;98.10;;;;;;5093400;28;20443;-74
2023/05/18 08:29:34;;;;;;;6.43;1.20;;;12.80;98.00;;;;;;5088966;28;20414;-73
2023/05/18 08:32:00;;;;;;;5.88;1.10;;;12.80;98.30;;;;;;5089724;28;20414;-73
2023/05/18 08:34:26;;;;;;;5.43;1.20;;;12.80;97.70;;;;;;5092480;28;20787;-73
2023/05/18 08:36:51;;;;;;;5.55;1.20;;;12.80;97.70;;;;;;5089057;28;20406;-74
2023/05/18 08:39:17;;;;;;;4.73;1.17;;;12.80;97.60;;;;;;5090628;28;20417;-74
2023/05/18 08:41:46;;;;;;;6.03;1.10;;;12.90;97.70;;;;;;5095026;28;20464;-70
2023/05/18 08:44:20;;;;;;;6.40;1.17;;;12.90;97.70;;;;;;5090342;28;20410;-71
2023/05/18 08:46:50;;;;;;;5.93;1.15;;;12.90;97.80;;;;;;5087960;28;20459;-71
2023/05/18 08:49:20;;;;;;;6.93;1.35;;;12.90;97.30;;;;;;5090620;28;20413;-71
2023/05/18 08:51:49;;;;;;;5.00;1.27;;;12.90;97.70;;;;;;5092904;28;20422;-73
2023/05/18 08:54:20;;;;;;;5.88;1.55;;;12.80;98.00;;;;;;5090483;28;20425;-72
2023/05/18 08:56:46;;;;;;;7.28;1.23;;;12.90;98.10;;;;;;5073521;28;20421;-72
2023/05/18 08:59:17;;;;;;;6.22;1.20;;;12.90;98.00;;;;;;5090661;28;20410;-73
2023/05/18 09:01:43;;;;;;;5.38;1.15;;;12.80;97.50;;;;;;5092157;28;20406;-72
2023/05/18 09:04:09;;;;;;;5.90;1.10;;;12.80;97.80;;;;;;5089811;28;20933;-73
2023/05/18 09:06:35;;;;;;;7.07;1.52;;;12.70;98.50;;;;;;5093809;28;20402;-73
2023/05/18 09:09:04;;;;;;;4.63;0.98;;;12.70;98.50;;;;;;5091092;28;20418;-73
2023/05/18 09:11:32;;;;;;;6.15;1.45;;;12.70;98.30;;;;;;5088415;28;21017;-73
2023/05/18 09:14:00;;;;;;;4.75;1.30;;;12.70;98.40;;;;;;5088404;28;20440;-73
2023/05/18 09:16:27;;;;;;;6.65;1.15;;;12.70;98.60;;;;;;5090361;28;20518;-73
2023/05/18 09:18:53;;;;;;;5.47;1.13;;;12.80;98.90;;;;;;5088121;28;20416;-73
2023/05/18 09:21:19;;;;;;;6.35;1.48;;;13.00;98.30;;;;;;5089744;28;20418;-73
2023/05/18 09:23:46;;;;;;;5.80;1.10;;;13.10;98.70;;;;;;5090352;28;20422;-73
2023/05/18 09:26:12;;;;;;;6.80;1.60;;;13.30;98.30;;;;;;5089844;28;20538;-73
2023/05/18 09:28:42;;;;;;;6.78;1.60;;;13.60;98.40;;;;;;5088811;28;20410;-73
2023/05/18 09:31:16;;;;;;;6.05;1.38;;;13.90;97.60;;;;;;5088539;28;20416;-73
2023/05/18 09:33:44;;;;;;;5.07;1.10;;;14.10;97.50;;;;;;5090106;28;20429;-73
2023/05/18 09:36:14;;;;;;;7.78;1.92;;;14.40;97.70;;;;;;5077248;28;20906;-73
2023/05/18 09:38:45;;;;;;;6.50;1.17;;;14.60;97.20;;;;;;5091810;28;20783;-73
2023/05/18 09:41:16;;;;;;;6.32;1.23;;;14.60;96.80;;;;;;5088181;28;20923;-73
2023/05/18 09:43:42;;;;;;;5.03;1.10;;;14.90;96.30;;;;;;5090649;28;20967;-73
2023/05/18 09:46:10;;;;;;;7.18;1.40;;;15.30;95.60;;;;;;5098638;28;20882;-73
2023/05/18 09:48:39;;;;;;;5.32;1.15;;;15.30;94.70;;;;;;5091139;28;20500;-73
2023/05/18 09:51:06;;;;;;;7.05;1.33;;;15.40;94.20;;;;;;5087367;28;20464;-73
2023/05/18 09:53:36;;;;;;;5.07;1.15;;;15.40;94.40;;;;;;5092519;28;20875;-73
2023/05/18 09:56:08;;;;;;;6.15;1.23;;;15.60;94.30;;;;;;5100299;28;20435;-74
2023/05/18 09:58:34;;;;;;;3.78;1.13;;;15.80;94.00;;;;;;5088472;28;20896;-74
2023/05/18 10:01:01;;;;;;;11.30;1.65;;;16.30;94.50;;;;;;5080236;28;20407;-74
2023/05/18 10:03:37;;;;;;;7.95;1.20;;;16.70;92.90;;;;;;5087486;28;20398;-74
2023/05/18 10:06:05;;;;;;;5.50;1.20;;;17.00;93.00;;;;;;5088203;28;20421;-74
2023/05/18 10:08:32;;;;;;;6.65;1.30;;;17.10;92.40;;;;;;5095787;28;20418;-74
2023/05/18 10:10:58;;;;;;;5.25;1.23;;;17.10;91.90;;;;;;5088565;28;20402;-74
2023/05/18 10:13:26;;;;;;;6.00;1.50;;;17.30;91.60;;;;;;5088641;28;20768;-74
2023/05/18 10:15:55;;;;;;;5.93;1.92;;;17.40;91.10;;;;;;5089340;28;20432;-74
2023/05/18 10:18:23;;;;;;;4.47;1.30;;;17.60;91.30;;;;;;5088814;28;20859;-74
2023/05/18 10:20:50;;;;;;;5.60;1.13;;;17.80;91.20;;;;;;5088478;28;20428;-74
2023/05/18 10:23:18;;;;;;;5.07;0.90;;;18.00;90.70;;;;;;5071080;28;20432;-74
2023/05/18 10:25:46;;;;;;;6.95;1.55;;;18.20;91.10;;;;;;5071243;28;20414;-74
2023/05/18 10:28:19;;;;;;;6.67;1.00;;;18.30;90.40;;;;;;5070450;28;20414;-74
2023/05/18 10:30:45;;;;;;;5.68;1.10;;;18.50;90.10;;;;;;5087791;28;20554;-74
2023/05/18 10:33:12;;;;;;;5.55;1.50;;;18.70;88.80;;;;;;5088769;28;20919;-74
2023/05/18 10:35:38;;;;;;;5.15;1.35;;;18.80;88.20;;;;;;5089914;28;20471;-74
2023/05/18 10:38:04;;;;;;;;;;;18.80;87.60;;;;;;5088801;28;20040;-74
2023/05/18 10:40:31;;;;;;;5.05;1.00;;;18.80;85.00;;;;;;5088878;28;19931;-74
2023/05/18 10:42:57;;;;;;;6.55;1.33;;;18.80;86.30;;;;;;5089021;28;20494;-74
2023/05/18 10:45:24;;;;;;;6.47;1.15;;;18.80;85.80;;;;;;5079565;28;20124;-75
2023/05/18 10:47:53;;;;;;;;;;;18.90;85.70;;;;;;5095369;28;20032;-74
2023/05/18 10:50:22;;;;;;;6.75;1.23;;;19.20;86.30;;;;;;5071027;28;20445;-74
2023/05/18 10:52:50;;;;;;;6.10;1.20;;;19.20;83.40;;;;;;5085402;28;20406;-74
2023/05/18 10:55:17;;;;;;;7.32;1.52;;;19.10;82.30;;;;;;5080104;28;20526;-75
2023/05/18 10:57:49;;;;;;;6.97;1.10;;;19.20;80.80;;;;;;5086652;28;20406;-74
2023/05/18 11:00:15;;;;;;;5.55;1.20;;;19.10;83.00;;;;;;5086254;28;20405;-74
2023/05/18 11:02:41;;;;;;;6.30;1.27;;;19.20;83.70;;;;;;5086373;28;20444;-75
2023/05/18 11:05:08;;;;;;;8.90;1.70;;;19.30;83.40;;;;;;5086660;28;20543;-74
2023/05/18 11:07:35;;;;;;;6.78;1.40;;;19.30;80.70;;;;;;5083777;28;20476;-74
2023/05/18 11:10:02;;;;;;;6.22;1.30;;;19.30;80.20;;;;;;5084964;28;20412;-74
2023/05/18 11:12:31;;;;;;;6.18;1.20;;;19.10;80.80;;;;;;5086616;28;20409;-75
2023/05/18 11:14:58;;;;;;;5.47;1.10;;;18.90;83.00;;;;;;5087622;28;20441;-75
2023/05/18 11:17:25;;;;;;;5.97;1.20;;;19.00;83.10;;;;;;5087935;28;20410;-75
2023/05/18 11:20:11;;;;;;;6.47;1.20;;;19.20;81.90;;;;;;5087789;28;20422;-75
2023/05/18 11:22:58;;;;;;;8.43;1.38;;;19.30;82.50;;;;;;5087341;28;20784;-75
2023/05/18 11:25:26;;;;;;;7.22;1.08;;;19.40;81.40;;;;;;5080993;28;20418;-75
2023/05/18 11:27:54;;;;;;;6.13;1.00;;;19.40;79.20;;;;;;5089205;28;20418;-74
2023/05/18 11:30:32;;;;;;;5.05;1.10;;;19.40;81.30;;;;;;5087707;28;20795;-74
2023/05/18 11:33:10;;;;;;;;;;;19.50;82.10;;;;;;5089477;28;20131;-74
2023/05/18 11:35:55;;;;;;;;;;;19.50;80.90;;;;;;5089622;28;19920;-74
2023/05/18 11:38:21;;;;;;;;;;;19.70;79.70;;;;;;5089251;28;19920;-74
2023/05/18 11:40:47;;;;;;;;;;;19.80;79.20;;;;;;5071285;28;19963;-74
2023/05/18 11:43:20;;;;;;;;;;;19.80;79.30;;;;;;5089642;28;19920;-75
2023/05/18 11:45:56;;;;;;;;;;;19.80;80.20;;;;;;5051544;28;19921;-74
2023/05/18 11:48:25;;;;;;;;;;;19.50;79.70;;;;;;5085679;28;19927;-74
2023/05/18 11:50:54;;;;;;;;;;;19.50;79.00;;;;;;5089237;28;19924;-74
2023/05/18 11:53:23;;;;;;;;;;;19.70;82.30;;;;;;5099518;28;19920;-74
2023/05/18 11:55:53;;;;;;;5.85;0.80;;;19.80;79.20;;;;;;5091404;28;19920;-74
2023/05/18 11:58:19;;;;;;;5.33;1.00;;;19.90;79.00;;;;;;5091171;28;20475;-74
2023/05/18 12:00:47;;;;;;;6.90;1.27;;;19.90;79.90;;;;;;5090948;28;20394;-74
2023/05/18 12:03:13;;;;;;;5.20;0.97;;;19.90;80.10;;;;;;5095249;28;20406;-74
2023/05/18 12:05:40;;;;;;;7.15;1.17;;;20.00;77.70;;;;;;5090186;28;20987;-74
2023/05/18 12:08:08;;;;;;;5.70;1.15;;;19.90;79.60;;;;;;5089490;28;20401;-74
2023/05/18 12:10:36;;;;;;;5.70;1.00;;;19.80;79.00;;;;;;5091308;28;20745;-74
2023/05/18 12:13:01;;;;;;;7.45;1.25;;;19.60;77.40;;;;;;5099298;28;20417;-74
2023/05/18 12:15:29;;;;;;;5.90;1.40;;;19.60;77.80;;;;;;5090611;28;20524;-74
2023/05/18 12:17:58;;;;;;;5.78;1.00;;;19.70;78.00;;;;;;5091710;28;20948;-74
2023/05/18 12:20:29;;;;;;;;;;;19.90;78.10;;;;;;5093173;28;20107;-74
2023/05/18 12:22:55;;;;;;;;;;;20.00;77.20;;;;;;5085660;28;20584;-74
2023/05/18 12:25:22;;;;;;;;;;;19.90;78.00;;;;;;5084211;28;19973;-74
2023/05/18 12:27:48;;;;;;;;;;;20.00;78.90;;;;;;5092367;28;19920;-74
2023/05/18 12:30:20;;;;;;;;;;;20.20;79.50;;;;;;5092838;28;20377;-74
2023/05/18 12:32:50;;;;;;;;;;;20.40;78.70;;;;;;5062641;28;19926;-74
2023/05/18 12:35:16;;;;;;;;;;;20.40;77.60;;;;;;5092980;28;19919;-74
2023/05/18 12:37:45;;;;;;;;;;;20.40;75.90;;;;;;5090747;28;19927;-75
2023/05/18 12:40:16;;;;;;;;;;;20.40;77.00;;;;;;5079410;28;20397;-74
2023/05/18 12:42:56;;;;;;;;;;;20.30;76.00;;;;;;5093928;28;19934;-75
2023/05/18 12:45:22;;;;;;;;;;;20.30;78.10;;;;;;5074611;28;19945;-74
2023/05/18 12:47:52;;;;;;;;;;;20.30;79.30;;;;;;5090722;28;19924;-74
2023/05/18 12:50:18;;;;;;;;;;;20.40;76.80;;;;;;5091157;28;19927;-75
2023/05/18 12:52:44;;;;;;;;;;;20.40;77.40;;;;;;5091574;28;20309;-75
2023/05/18 12:55:14;;;;;;;;;;;20.60;78.20;;;;;;5091617;28;20570;-74
2023/05/18 12:57:42;;;;;;;;;;;20.80;75.40;;;;;;5073756;28;19920;-75
2023/05/18 13:00:10;;;;;;;;;;;20.80;77.50;;;;;;5091547;28;20318;-75